sensor_id;sensor_type;location;lat;lon;timestamp;pressure;altitude;pressure_sealevel;temperature;humidity
37892;BME280;45797;47.466;9.486;2023-08-17T00:02:25;95862.91;;;25.08;49.70
37892;BME280;45797;47.466;9.486;2023-08-17T00:07:45;95875.63;;;24.99;49.56
37892;BME280;45797;47.466;9.486;2023-08-17T00:13:02;95857.22;;;24.89;49.79
37892;BME280;45797;47.466;9.486;2023-08-17T00:18:04;95870.75;;;24.81;49.73
37892;BME280;45797;47.466;9.486;2023-08-17T00:23:06;95873.59;;;24.73;49.79
37892;BME280;45797;47.466;9.486;2023-08-17T00:28:07;95871.25;;;24.63;49.72
37892;BME280;45797;47.466;9.486;2023-08-17T00:33:12;95877.63;;;24.56;49.89
37892;BME280;45797;47.466;9.486;2023-08-17T00:38:13;95872.97;;;24.43;50.08
37892;BME280;45797;47.466;9.486;2023-08-17T00:43:14;95876.38;;;24.30;49.75
37892;BME280;45797;47.466;9.486;2023-08-17T00:48:18;95870.75;;;24.25;49.87
37892;BME280;45797;47.466;9.486;2023-08-17T00:53:22;95866.53;;;24.16;50.06
37892;BME280;45797;47.466;9.486;2023-08-17T00:58:26;95868.38;;;24.09;49.83
37892;BME280;45797;47.466;9.486;2023-08-17T01:03:29;95873.44;;;24.04;50.15
37892;BME280;45797;47.466;9.486;2023-08-17T01:08:42;95874.59;;;23.94;49.84
37892;BME280;45797;47.466;9.486;2023-08-17T01:18:52;95876.66;;;23.92;49.61
37892;BME280;45797;47.466;9.486;2023-08-17T01:23:58;95873.34;;;23.90;49.83
37892;BME280;45797;47.466;9.486;2023-08-17T01:29:07;95875.13;;;23.83;49.92
37892;BME280;45797;47.466;9.486;2023-08-17T01:34:14;95884.56;;;23.79;49.54
37892;BME280;45797;47.466;9.486;2023-08-17T01:39:20;95878.94;;;23.74;49.62
37892;BME280;45797;47.466;9.486;2023-08-17T01:44:40;95878.84;;;23.68;49.96
37892;BME280;45797;47.466;9.486;2023-08-17T01:49:41;95881.28;;;23.62;50.13
37892;BME280;45797;47.466;9.486;2023-08-17T01:54:41;95874.59;;;23.58;50.18
37892;BME280;45797;47.466;9.486;2023-08-17T01:59:48;95875.00;;;23.55;50.76
37892;BME280;45797;47.466;9.486;2023-08-17T02:04:49;95867.56;;;23.51;51.11
37892;BME280;45797;47.466;9.486;2023-08-17T02:09:49;95866.63;;;23.44;50.91
37892;BME280;45797;47.466;9.486;2023-08-17T02:14:50;95867.03;;;23.41;51.06
37892;BME280;45797;47.466;9.486;2023-08-17T02:19:54;95865.53;;;23.38;51.51
37892;BME280;45797;47.466;9.486;2023-08-17T02:24:54;95866.47;;;23.30;51.67
37892;BME280;45797;47.466;9.486;2023-08-17T02:29:57;95865.19;;;23.26;51.61
37892;BME280;45797;47.466;9.486;2023-08-17T02:35:01;95859.56;;;23.21;52.12
37892;BME280;45797;47.466;9.486;2023-08-17T02:40:10;95860.72;;;23.12;52.31
37892;BME280;45797;47.466;9.486;2023-08-17T02:45:10;95865.41;;;23.10;52.21
37892;BME280;45797;47.466;9.486;2023-08-17T02:50:11;95865.78;;;23.07;52.76
37892;BME280;45797;47.466;9.486;2023-08-17T02:55:11;95867.34;;;23.01;52.77
37892;BME280;45797;47.466;9.486;2023-08-17T03:00:12;95872.25;;;22.98;52.98
37892;BME280;45797;47.466;9.486;2023-08-17T03:05:12;95876.31;;;22.94;53.13
37892;BME280;45797;47.466;9.486;2023-08-17T03:10:16;95872.97;;;22.92;53.41
37892;BME280;45797;47.466;9.486;2023-08-17T03:15:36;95863.34;;;22.83;53.32
37892;BME280;45797;47.466;9.486;2023-08-17T03:20:39;95867.88;;;22.82;53.68
37892;BME280;45797;47.466;9.486;2023-08-17T03:25:41;95866.59;;;22.78;53.37
37892;BME280;45797;47.466;9.486;2023-08-17T03:30:42;95864.47;;;22.73;53.49
37892;BME280;45797;47.466;9.486;2023-08-17T03:35:45;95870.19;;;22.70;53.76
37892;BME280;45797;47.466;9.486;2023-08-17T03:40:46;95865.22;;;22.67;53.77
37892;BME280;45797;47.466;9.486;2023-08-17T03:45:47;95869.91;;;22.65;53.82
37892;BME280;45797;47.466;9.486;2023-08-17T03:50:54;95860.22;;;22.64;53.73
37892;BME280;45797;47.466;9.486;2023-08-17T03:55:54;95868.81;;;22.60;54.16
37892;BME280;45797;47.466;9.486;2023-08-17T04:00:54;95864.66;;;22.57;54.37
37892;BME280;45797;47.466;9.486;2023-08-17T04:06:07;95863.00;;;22.56;53.96
37892;BME280;45797;47.466;9.486;2023-08-17T04:11:10;95872.38;;;22.52;54.54
37892;BME280;45797;47.466;9.486;2023-08-17T04:16:11;95872.38;;;22.52;54.11
37892;BME280;45797;47.466;9.486;2023-08-17T04:21:15;95881.69;;;22.56;54.58
37892;BME280;45797;47.466;9.486;2023-08-17T04:26:15;95886.56;;;22.52;54.67
37892;BME280;45797;47.466;9.486;2023-08-17T04:31:18;95883.16;;;22.59;54.33
37892;BME280;45797;47.466;9.486;2023-08-17T04:36:21;95886.28;;;22.62;54.55
37892;BME280;45797;47.466;9.486;2023-08-17T04:41:35;95875.91;;;22.67;54.00
37892;BME280;45797;47.466;9.486;2023-08-17T04:46:39;95878.66;;;22.74;54.27
37892;BME280;45797;47.466;9.486;2023-08-17T04:51:39;95872.38;;;22.81;54.36
37892;BME280;45797;47.466;9.486;2023-08-17T04:56:40;95880.34;;;22.90;54.32
37892;BME280;45797;47.466;9.486;2023-08-17T05:01:40;95888.72;;;23.01;53.95
37892;BME280;45797;47.466;9.486;2023-08-17T05:06:44;95882.34;;;23.17;53.96
37892;BME280;45797;47.466;9.486;2023-08-17T05:11:46;95871.81;;;23.30;53.98
37892;BME280;45797;47.466;9.486;2023-08-17T05:16:48;95882.31;;;23.47;53.79
37892;BME280;45797;47.466;9.486;2023-08-17T05:21:48;95876.38;;;23.66;53.34
37892;BME280;45797;47.466;9.486;2023-08-17T05:26:54;95870.84;;;23.89;52.96
37892;BME280;45797;47.466;9.486;2023-08-17T05:31:54;95880.91;;;24.08;53.19
37892;BME280;45797;47.466;9.486;2023-08-17T05:36:56;95882.28;;;24.26;52.54
37892;BME280;45797;47.466;9.486;2023-08-17T05:42:23;95893.78;;;24.41;52.53
37892;BME280;45797;47.466;9.486;2023-08-17T05:47:57;95894.53;;;24.56;52.22
37892;BME280;45797;47.466;9.486;2023-08-17T05:52:59;95893.84;;;24.75;52.38
37892;BME280;45797;47.466;9.486;2023-08-17T05:58:01;95897.41;;;24.89;52.41
37892;BME280;45797;47.466;9.486;2023-08-17T06:03:04;95896.44;;;24.97;52.39
37892;BME280;45797;47.466;9.486;2023-08-17T06:08:05;95903.66;;;24.96;52.84
37892;BME280;45797;47.466;9.486;2023-08-17T06:13:21;95903.84;;;24.95;53.04
37892;BME280;45797;47.466;9.486;2023-08-17T06:18:23;95907.25;;;25.03;52.86
37892;BME280;45797;47.466;9.486;2023-08-17T06:23:24;95910.47;;;24.99;53.28
37892;BME280;45797;47.466;9.486;2023-08-17T06:28:32;95911.69;;;24.96;53.62
37892;BME280;45797;47.466;9.486;2023-08-17T06:33:32;95915.50;;;25.09;53.47
37892;BME280;45797;47.466;9.486;2023-08-17T06:38:40;95918.28;;;25.22;53.31
37892;BME280;45797;47.466;9.486;2023-08-17T06:43:45;95919.13;;;25.29;52.92
37892;BME280;45797;47.466;9.486;2023-08-17T06:48:45;95921.06;;;25.42;53.18
37892;BME280;45797;47.466;9.486;2023-08-17T06:53:47;95921.13;;;25.61;52.87
37892;BME280;45797;47.466;9.486;2023-08-17T06:58:53;95910.59;;;25.67;53.05
37892;BME280;45797;47.466;9.486;2023-08-17T07:03:55;95917.88;;;25.73;52.88
37892;BME280;45797;47.466;9.486;2023-08-17T07:08:58;95921.00;;;25.83;52.85
37892;BME280;45797;47.466;9.486;2023-08-17T07:14:00;95918.97;;;25.91;52.99
37892;BME280;45797;47.466;9.486;2023-08-17T07:19:00;95923.72;;;25.96;52.99
37892;BME280;45797;47.466;9.486;2023-08-17T07:24:11;95919.63;;;26.00;52.67
37892;BME280;45797;47.466;9.486;2023-08-17T07:29:12;95924.34;;;26.05;52.93
37892;BME280;45797;47.466;9.486;2023-08-17T07:34:14;95929.13;;;26.09;52.96
37892;BME280;45797;47.466;9.486;2023-08-17T07:39:14;95936.19;;;26.17;53.02
37892;BME280;45797;47.466;9.486;2023-08-17T07:44:15;95934.31;;;26.24;52.86
37892;BME280;45797;47.466;9.486;2023-08-17T07:49:25;95935.78;;;26.27;52.88
37892;BME280;45797;47.466;9.486;2023-08-17T07:54:26;95938.03;;;26.16;53.60
37892;BME280;45797;47.466;9.486;2023-08-17T07:59:27;95940.50;;;26.11;53.52
37892;BME280;45797;47.466;9.486;2023-08-17T08:04:29;95939.91;;;26.23;53.29
37892;BME280;45797;47.466;9.486;2023-08-17T08:09:30;95941.16;;;26.27;53.39
37892;BME280;45797;47.466;9.486;2023-08-17T08:14:32;95937.06;;;26.37;53.51
37892;BME280;45797;47.466;9.486;2023-08-17T08:19:34;95934.81;;;26.54;53.16
37892;BME280;45797;47.466;9.486;2023-08-17T08:24:59;95928.19;;;26.63;52.72
37892;BME280;45797;47.466;9.486;2023-08-17T08:30:26;95930.03;;;26.76;52.67
37892;BME280;45797;47.466;9.486;2023-08-17T08:35:33;95924.00;;;26.94;52.35
37892;BME280;45797;47.466;9.486;2023-08-17T08:40:35;95921.53;;;27.12;52.46
37892;BME280;45797;47.466;9.486;2023-08-17T08:45:41;95924.97;;;27.39;51.86
37892;BME280;45797;47.466;9.486;2023-08-17T08:50:43;95925.72;;;27.66;51.64
37892;BME280;45797;47.466;9.486;2023-08-17T08:55:58;95929.31;;;27.98;51.02
37892;BME280;45797;47.466;9.486;2023-08-17T09:01:00;95928.59;;;28.09;50.65
37892;BME280;45797;47.466;9.486;2023-08-17T09:06:01;95929.75;;;28.33;50.71
37892;BME280;45797;47.466;9.486;2023-08-17T09:11:21;95922.81;;;28.69;50.13
37892;BME280;45797;47.466;9.486;2023-08-17T09:16:23;95928.75;;;29.02;49.83
37892;BME280;45797;47.466;9.486;2023-08-17T09:21:24;95927.56;;;29.35;48.91
37892;BME280;45797;47.466;9.486;2023-08-17T09:26:32;95934.22;;;29.57;48.89
37892;BME280;45797;47.466;9.486;2023-08-17T09:31:34;95925.56;;;29.85;48.56
37892;BME280;45797;47.466;9.486;2023-08-17T09:36:37;95937.91;;;29.93;48.22
37892;BME280;45797;47.466;9.486;2023-08-17T09:41:44;95933.13;;;30.13;48.09
37892;BME280;45797;47.466;9.486;2023-08-17T09:46:46;95925.13;;;30.19;48.11
37892;BME280;45797;47.466;9.486;2023-08-17T09:52:01;95925.34;;;30.17;47.80
37892;BME280;45797;47.466;9.486;2023-08-17T09:57:04;95922.22;;;30.32;47.51
37892;BME280;45797;47.466;9.486;2023-08-17T10:02:15;95930.63;;;30.42;47.37
37892;BME280;45797;47.466;9.486;2023-08-17T10:07:30;95924.22;;;30.66;47.00
37892;BME280;45797;47.466;9.486;2023-08-17T10:12:41;95931.50;;;30.66;46.72
37892;BME280;45797;47.466;9.486;2023-08-17T10:17:57;95936.81;;;30.73;46.61
37892;BME280;45797;47.466;9.486;2023-08-17T10:28:38;95937.59;;;30.61;46.97
37892;BME280;45797;47.466;9.486;2023-08-17T10:33:55;95933.41;;;30.89;46.76
37892;BME280;45797;47.466;9.486;2023-08-17T10:39:23;95934.75;;;31.21;45.98
37892;BME280;45797;47.466;9.486;2023-08-17T10:44:47;95935.63;;;31.50;45.71
37892;BME280;45797;47.466;9.486;2023-08-17T10:50:22;95939.09;;;31.74;45.33
37892;BME280;45797;47.466;9.486;2023-08-17T10:55:38;95931.19;;;31.96;44.58
37892;BME280;45797;47.466;9.486;2023-08-17T11:00:40;95926.09;;;32.00;44.66
37892;BME280;45797;47.466;9.486;2023-08-17T11:05:57;95924.25;;;32.17;44.11
37892;BME280;45797;47.466;9.486;2023-08-17T11:11:12;95933.53;;;32.21;44.01
37892;BME280;45797;47.466;9.486;2023-08-17T11:16:41;95925.63;;;32.03;44.71
37892;BME280;45797;47.466;9.486;2023-08-17T11:21:44;95924.13;;;31.95;44.91
37892;BME280;45797;47.466;9.486;2023-08-17T11:26:47;95922.03;;;31.74;44.94
37892;BME280;45797;47.466;9.486;2023-08-17T11:31:50;95918.41;;;31.68;45.07
37892;BME280;45797;47.466;9.486;2023-08-17T11:36:50;95910.16;;;31.63;45.44
37892;BME280;45797;47.466;9.486;2023-08-17T11:42:10;95904.66;;;31.58;45.12
37892;BME280;45797;47.466;9.486;2023-08-17T11:47:11;95899.56;;;31.62;44.81
37892;BME280;45797;47.466;9.486;2023-08-17T11:52:37;95898.84;;;31.66;45.35
37892;BME280;45797;47.466;9.486;2023-08-17T11:57:40;95903.44;;;31.77;45.13
37892;BME280;45797;47.466;9.486;2023-08-17T12:02:40;95904.84;;;31.80;45.25
37892;BME280;45797;47.466;9.486;2023-08-17T12:07:45;95904.84;;;31.80;45.40
37892;BME280;45797;47.466;9.486;2023-08-17T12:12:48;95900.72;;;32.06;44.97
37892;BME280;45797;47.466;9.486;2023-08-17T12:18:03;95895.91;;;32.25;44.41
37892;BME280;45797;47.466;9.486;2023-08-17T12:23:04;95897.53;;;32.37;44.16
37892;BME280;45797;47.466;9.486;2023-08-17T12:28:04;95901.47;;;32.47;44.35
37892;BME280;45797;47.466;9.486;2023-08-17T12:33:09;95904.88;;;32.71;43.96
37892;BME280;45797;47.466;9.486;2023-08-17T12:38:11;95904.69;;;32.77;44.25
37892;BME280;45797;47.466;9.486;2023-08-17T12:43:11;95894.22;;;32.69;44.23
37892;BME280;45797;47.466;9.486;2023-08-17T12:48:14;95904.78;;;32.82;43.87
37892;BME280;45797;47.466;9.486;2023-08-17T12:53:14;95905.53;;;32.94;43.68
37892;BME280;45797;47.466;9.486;2023-08-17T12:58:14;95915.97;;;33.03;43.34
37892;BME280;45797;47.466;9.486;2023-08-17T13:03:17;95914.91;;;33.04;42.81
37892;BME280;45797;47.466;9.486;2023-08-17T13:08:22;95913.06;;;33.26;42.63
37892;BME280;45797;47.466;9.486;2023-08-17T13:13:22;95916.53;;;33.38;41.96
37892;BME280;45797;47.466;9.486;2023-08-17T13:18:25;95906.78;;;33.42;41.41
37892;BME280;45797;47.466;9.486;2023-08-17T13:23:28;95901.47;;;33.52;41.62
37892;BME280;45797;47.466;9.486;2023-08-17T13:28:28;95900.78;;;33.62;41.15
37892;BME280;45797;47.466;9.486;2023-08-17T13:33:38;95901.50;;;33.74;41.33
37892;BME280;45797;47.466;9.486;2023-08-17T13:38:48;95884.41;;;33.79;41.04
37892;BME280;45797;47.466;9.486;2023-08-17T13:43:51;95886.56;;;33.77;40.58
37892;BME280;45797;47.466;9.486;2023-08-17T13:49:04;95886.50;;;33.72;41.04
37892;BME280;45797;47.466;9.486;2023-08-17T13:54:14;95872.78;;;33.62;40.17
37892;BME280;45797;47.466;9.486;2023-08-17T13:59:16;95884.88;;;33.49;40.69
37892;BME280;45797;47.466;9.486;2023-08-17T14:04:26;95883.03;;;33.55;40.27
37892;BME280;45797;47.466;9.486;2023-08-17T14:09:26;95881.19;;;33.60;40.01
37892;BME280;45797;47.466;9.486;2023-08-17T14:14:35;95872.06;;;33.71;40.41
37892;BME280;45797;47.466;9.486;2023-08-17T14:19:39;95880.03;;;33.78;39.90
37892;BME280;45797;47.466;9.486;2023-08-17T14:24:45;95871.81;;;33.73;39.80
37892;BME280;45797;47.466;9.486;2023-08-17T14:30:13;95875.06;;;33.70;39.96
37892;BME280;45797;47.466;9.486;2023-08-17T14:35:13;95868.03;;;33.74;39.62
37892;BME280;45797;47.466;9.486;2023-08-17T14:40:15;95879.38;;;33.66;39.53
37892;BME280;45797;47.466;9.486;2023-08-17T14:45:19;95879.66;;;33.69;39.29
37892;BME280;45797;47.466;9.486;2023-08-17T14:50:20;95875.34;;;33.73;39.56
37892;BME280;45797;47.466;9.486;2023-08-17T14:55:21;95878.16;;;33.78;38.54
37892;BME280;45797;47.466;9.486;2023-08-17T15:00:22;95878.84;;;33.69;38.90
37892;BME280;45797;47.466;9.486;2023-08-17T15:05:24;95873.03;;;33.60;38.40
37892;BME280;45797;47.466;9.486;2023-08-17T15:10:24;95890.59;;;33.52;38.54
37892;BME280;45797;47.466;9.486;2023-08-17T15:15:26;95893.28;;;33.47;38.62
37892;BME280;45797;47.466;9.486;2023-08-17T15:20:28;95888.97;;;33.51;38.43
37892;BME280;45797;47.466;9.486;2023-08-17T15:25:35;95880.81;;;33.51;38.37
37892;BME280;45797;47.466;9.486;2023-08-17T15:30:35;95884.22;;;33.42;38.27
37892;BME280;45797;47.466;9.486;2023-08-17T15:35:37;95873.97;;;33.27;38.27
37892;BME280;45797;47.466;9.486;2023-08-17T15:40:38;95863.31;;;33.04;38.35
37892;BME280;45797;47.466;9.486;2023-08-17T15:45:39;95860.38;;;32.88;38.36
37892;BME280;45797;47.466;9.486;2023-08-17T15:50:46;95858.16;;;32.85;38.92
37892;BME280;45797;47.466;9.486;2023-08-17T15:55:53;95845.38;;;32.86;38.82
37892;BME280;45797;47.466;9.486;2023-08-17T16:00:58;95851.88;;;33.02;38.29
37892;BME280;45797;47.466;9.486;2023-08-17T16:06:04;95866.34;;;33.46;37.93
37892;BME280;45797;47.466;9.486;2023-08-17T16:11:06;95872.03;;;33.66;37.63
37892;BME280;45797;47.466;9.486;2023-08-17T16:16:08;95890.16;;;33.83;37.44
37892;BME280;45797;47.466;9.486;2023-08-17T16:21:09;95892.13;;;33.87;37.97
37892;BME280;45797;47.466;9.486;2023-08-17T16:26:10;95897.50;;;33.38;38.81
37892;BME280;45797;47.466;9.486;2023-08-17T16:31:11;95902.56;;;32.79;39.64
37892;BME280;45797;47.466;9.486;2023-08-17T16:36:12;95892.38;;;32.24;39.81
37892;BME280;45797;47.466;9.486;2023-08-17T16:41:20;95892.44;;;31.72;39.83
37892;BME280;45797;47.466;9.486;2023-08-17T16:46:20;95884.09;;;31.22;40.45
37892;BME280;45797;47.466;9.486;2023-08-17T16:51:29;95888.22;;;30.89;40.12
37892;BME280;45797;47.466;9.486;2023-08-17T16:56:42;95891.81;;;30.48;40.91
37892;BME280;45797;47.466;9.486;2023-08-17T17:01:44;95895.88;;;30.27;39.95
37892;BME280;45797;47.466;9.486;2023-08-17T17:06:46;95902.53;;;30.13;39.83
37892;BME280;45797;47.466;9.486;2023-08-17T17:11:49;95901.84;;;29.88;39.95
37892;BME280;45797;47.466;9.486;2023-08-17T17:16:51;95901.34;;;29.61;40.43
37892;BME280;45797;47.466;9.486;2023-08-17T17:21:57;95916.50;;;29.62;39.85
37892;BME280;45797;47.466;9.486;2023-08-17T17:27:00;95926.78;;;29.53;40.01
37892;BME280;45797;47.466;9.486;2023-08-17T17:32:02;95923.72;;;29.49;39.77
37892;BME280;45797;47.466;9.486;2023-08-17T17:37:03;95932.53;;;29.20;40.29
37892;BME280;45797;47.466;9.486;2023-08-17T17:42:03;95920.34;;;28.92;40.64
37892;BME280;45797;47.466;9.486;2023-08-17T17:47:04;95895.28;;;28.60;41.10
37892;BME280;45797;47.466;9.486;2023-08-17T17:52:04;95888.31;;;28.21;41.38
37892;BME280;45797;47.466;9.486;2023-08-17T17:57:05;95885.38;;;27.98;41.87
37892;BME280;45797;47.466;9.486;2023-08-17T18:02:12;95881.63;;;27.99;41.40
37892;BME280;45797;47.466;9.486;2023-08-17T18:07:21;95887.00;;;27.54;42.34
37892;BME280;45797;47.466;9.486;2023-08-17T18:12:46;95868.13;;;27.09;43.40
37892;BME280;45797;47.466;9.486;2023-08-17T18:17:48;95870.88;;;26.83;44.09
37892;BME280;45797;47.466;9.486;2023-08-17T18:22:48;95850.00;;;26.52;44.17
37892;BME280;45797;47.466;9.486;2023-08-17T18:27:48;95847.75;;;26.35;44.67
37892;BME280;45797;47.466;9.486;2023-08-17T18:32:49;95842.78;;;26.26;44.62
37892;BME280;45797;47.466;9.486;2023-08-17T18:37:49;95847.31;;;26.18;44.85
37892;BME280;45797;47.466;9.486;2023-08-17T18:42:51;95862.84;;;26.16;44.51
37892;BME280;45797;47.466;9.486;2023-08-17T18:47:52;95863.66;;;26.17;44.26
37892;BME280;45797;47.466;9.486;2023-08-17T18:52:53;95847.94;;;26.14;44.48
37892;BME280;45797;47.466;9.486;2023-08-17T18:57:53;95858.69;;;26.14;44.24
37892;BME280;45797;47.466;9.486;2023-08-17T19:02:59;95877.28;;;26.15;44.15
37892;BME280;45797;47.466;9.486;2023-08-17T19:07:59;95863.03;;;26.08;44.17
37892;BME280;45797;47.466;9.486;2023-08-17T19:13:00;95860.34;;;26.08;44.00
37892;BME280;45797;47.466;9.486;2023-08-17T19:18:04;95860.53;;;26.00;44.64
37892;BME280;45797;47.466;9.486;2023-08-17T19:23:07;95855.16;;;25.87;45.00
37892;BME280;45797;47.466;9.486;2023-08-17T19:28:07;95856.31;;;25.64;45.36
37892;BME280;45797;47.466;9.486;2023-08-17T19:33:08;95851.75;;;25.52;45.45
37892;BME280;45797;47.466;9.486;2023-08-17T19:38:17;95853.78;;;25.43;45.73
37892;BME280;45797;47.466;9.486;2023-08-17T19:43:35;95843.00;;;25.37;45.37
37892;BME280;45797;47.466;9.486;2023-08-17T19:48:54;95825.28;;;25.42;45.06
37892;BME280;45797;47.466;9.486;2023-08-17T19:54:00;95819.97;;;25.62;44.47
37892;BME280;45797;47.466;9.486;2023-08-17T19:59:07;95812.19;;;25.80;44.00
37892;BME280;45797;47.466;9.486;2023-08-17T20:04:11;95813.63;;;25.96;43.63
37892;BME280;45797;47.466;9.486;2023-08-17T20:09:19;95824.81;;;26.06;43.38
37892;BME280;45797;47.466;9.486;2023-08-17T20:14:19;95816.31;;;25.96;43.41
37892;BME280;45797;47.466;9.486;2023-08-17T20:19:28;95796.91;;;25.81;43.82
37892;BME280;45797;47.466;9.486;2023-08-17T20:24:34;95801.38;;;25.67;44.89
37892;BME280;45797;47.466;9.486;2023-08-17T20:29:35;95792.06;;;25.56;44.45
37892;BME280;45797;47.466;9.486;2023-08-17T20:34:37;95788.19;;;25.59;44.25
37892;BME280;45797;47.466;9.486;2023-08-17T20:39:40;95795.19;;;25.60;44.55
37892;BME280;45797;47.466;9.486;2023-08-17T20:44:42;95802.81;;;25.56;44.55
37892;BME280;45797;47.466;9.486;2023-08-17T20:49:43;95812.09;;;25.54;44.70
37892;BME280;45797;47.466;9.486;2023-08-17T20:54:44;95821.81;;;25.55;44.63
37892;BME280;45797;47.466;9.486;2023-08-17T20:59:45;95832.31;;;25.43;45.14
37892;BME280;45797;47.466;9.486;2023-08-17T21:04:48;95842.84;;;25.45;44.87
37892;BME280;45797;47.466;9.486;2023-08-17T21:09:56;95846.75;;;25.42;45.07
37892;BME280;45797;47.466;9.486;2023-08-17T21:14:57;95847.13;;;25.39;45.40
37892;BME280;45797;47.466;9.486;2023-08-17T21:20:00;95842.19;;;25.36;45.47
37892;BME280;45797;47.466;9.486;2023-08-17T21:25:07;95839.28;;;25.31;45.76
37892;BME280;45797;47.466;9.486;2023-08-17T21:30:08;95841.31;;;25.29;45.58
37892;BME280;45797;47.466;9.486;2023-08-17T21:35:10;95857.00;;;25.25;46.18
37892;BME280;45797;47.466;9.486;2023-08-17T21:40:14;95863.34;;;25.18;46.16
37892;BME280;45797;47.466;9.486;2023-08-17T21:45:22;95866.41;;;25.08;46.27
37892;BME280;45797;47.466;9.486;2023-08-17T21:50:24;95873.75;;;24.99;46.80
37892;BME280;45797;47.466;9.486;2023-08-17T21:55:26;95871.22;;;24.91;46.98
37892;BME280;45797;47.466;9.486;2023-08-17T22:00:36;95870.75;;;24.81;46.93
37892;BME280;45797;47.466;9.486;2023-08-17T22:05:38;95864.56;;;24.74;47.55
37892;BME280;45797;47.466;9.486;2023-08-17T22:10:39;95858.53;;;24.65;47.52
37892;BME280;45797;47.466;9.486;2023-08-17T22:15:39;95847.13;;;24.57;47.97
37892;BME280;45797;47.466;9.486;2023-08-17T22:20:50;95839.25;;;24.48;48.14
37892;BME280;45797;47.466;9.486;2023-08-17T22:25:51;95842.88;;;24.41;48.26
37892;BME280;45797;47.466;9.486;2023-08-17T22:31:02;95845.72;;;24.33;49.09
37892;BME280;45797;47.466;9.486;2023-08-17T22:36:09;95851.84;;;24.27;48.90
37892;BME280;45797;47.466;9.486;2023-08-17T22:41:34;95846.53;;;24.12;48.91
37892;BME280;45797;47.466;9.486;2023-08-17T22:46:40;95851.91;;;24.12;49.39
37892;BME280;45797;47.466;9.486;2023-08-17T22:51:40;95846.28;;;24.07;49.47
37892;BME280;45797;47.466;9.486;2023-08-17T23:02:19;95844.53;;;23.92;49.18
37892;BME280;45797;47.466;9.486;2023-08-17T23:07:23;95837.09;;;23.88;49.81
37892;BME280;45797;47.466;9.486;2023-08-17T23:12:23;95841.34;;;23.82;49.92
37892;BME280;45797;47.466;9.486;2023-08-17T23:17:24;95848.09;;;23.78;49.95
37892;BME280;45797;47.466;9.486;2023-08-17T23:22:25;95852.81;;;23.76;49.57
37892;BME280;45797;47.466;9.486;2023-08-17T23:27:26;95860.19;;;23.74;50.09
37892;BME280;45797;47.466;9.486;2023-08-17T23:32:26;95857.00;;;23.64;50.59
37892;BME280;45797;47.466;9.486;2023-08-17T23:37:27;95862.09;;;23.59;50.55
37892;BME280;45797;47.466;9.486;2023-08-17T23:42:29;95858.13;;;23.55;50.34
37892;BME280;45797;47.466;9.486;2023-08-17T23:47:29;95862.75;;;23.46;50.84
37892;BME280;45797;47.466;9.486;2023-08-17T23:52:32;95854.66;;;23.40;50.81
37892;BME280;45797;47.466;9.486;2023-08-17T23:57:32;95862.63;;;23.33;51.09
